createdAt,value
2019-04-06T00:01:51.601Z,21.80
2019-04-06T00:04:21.767Z,22.67
2019-04-06T00:06:51.496Z,21.73
2019-04-06T00:09:21.280Z,22.27
2019-04-06T00:11:51.006Z,21.53
2019-04-06T00:14:20.887Z,21.57
2019-04-06T00:16:50.520Z,22.10
2019-04-06T00:19:20.327Z,21.67
2019-04-06T00:21:49.888Z,21.03
2019-04-06T00:24:19.567Z,21.97
2019-04-06T00:26:49.167Z,21.53
2019-04-06T00:29:19.127Z,21.43
2019-04-06T00:32:08.207Z,22.27
2019-04-06T00:34:37.849Z,22.37
2019-04-06T00:37:07.488Z,21.90
2019-04-06T00:39:37.133Z,22.70
2019-04-06T00:42:06.923Z,21.47
2019-04-06T00:44:37.059Z,21.03
2019-04-06T00:47:09.331Z,22.27
2019-04-06T00:49:39.367Z,21.57
2019-04-06T00:52:09.131Z,20.40
2019-04-06T00:54:39.255Z,20.50
2019-04-06T00:57:08.962Z,19.90
2019-04-06T00:59:38.600Z,21.20
2019-04-06T01:02:08.872Z,21.07
2019-04-06T01:04:38.372Z,20.30
2019-04-06T01:07:08.139Z,20.90
2019-04-06T01:09:37.892Z,22.17
2019-04-06T01:12:07.425Z,20.33
2019-04-06T01:14:36.955Z,21.47
2019-04-06T01:17:06.523Z,21.87
2019-04-06T01:19:36.057Z,21.17
2019-04-06T01:22:05.656Z,20.77
2019-04-06T01:24:35.601Z,21.23
2019-04-06T01:27:05.561Z,20.93
2019-04-06T01:29:35.027Z,21.13
2019-04-06T01:32:04.575Z,21.70
2019-04-06T01:34:34.317Z,21.70
2019-04-06T01:37:04.019Z,21.70
2019-04-06T01:39:33.507Z,20.53
2019-04-06T01:42:02.985Z,21.40
2019-04-06T01:44:32.763Z,23.07
2019-04-06T01:47:02.479Z,22.90
2019-04-06T01:49:31.975Z,23.70
2019-04-06T01:52:01.498Z,24.83
2019-04-06T01:54:30.991Z,23.70
2019-04-06T01:57:00.486Z,23.40
2019-04-06T01:59:30.051Z,23.13
2019-04-06T02:02:14.429Z,24.23
2019-04-06T02:04:43.926Z,21.67
2019-04-06T02:07:13.767Z,23.67
2019-04-06T02:09:43.347Z,22.03
2019-04-06T02:12:13.087Z,22.60
2019-04-06T02:14:42.843Z,23.17
2019-04-06T02:17:12.339Z,22.27
2019-04-06T02:19:41.915Z,22.27
2019-04-06T02:22:11.403Z,22.97
2019-04-06T02:24:41.035Z,22.40
2019-04-06T02:27:10.742Z,23.20
2019-04-06T02:29:41.448Z,22.13
2019-04-06T02:32:29.927Z,24.00
2019-04-06T02:35:08.939Z,23.87
2019-04-06T02:37:52.339Z,22.53
2019-04-06T02:40:39.624Z,22.43
2019-04-06T02:43:15.806Z,23.93
2019-04-06T02:45:45.726Z,22.60
2019-04-06T02:48:15.458Z,22.40
2019-04-06T02:50:44.972Z,23.70
2019-04-06T02:53:14.630Z,23.17
2019-04-06T02:55:44.162Z,21.63
2019-04-06T02:58:13.654Z,22.27
2019-04-06T03:00:43.192Z,22.57
2019-04-06T03:03:12.663Z,23.87
2019-04-06T03:05:42.227Z,23.00
2019-04-06T03:08:11.794Z,23.07
2019-04-06T03:10:41.281Z,23.37
2019-04-06T03:13:10.801Z,23.27
2019-04-06T03:15:40.387Z,24.30
2019-04-06T03:18:10.065Z,23.80
2019-04-06T03:20:39.580Z,23.00
2019-04-06T03:23:09.219Z,23.40
2019-04-06T03:25:38.861Z,22.20
2019-04-06T03:28:08.584Z,24.10
2019-04-06T03:30:37.972Z,21.87
2019-04-06T03:33:07.588Z,22.17
2019-04-06T03:35:37.166Z,22.27
2019-04-06T03:38:07.145Z,22.93
2019-04-06T03:40:36.869Z,21.97
2019-04-06T03:43:06.611Z,23.00
2019-04-06T03:45:36.100Z,22.87
2019-04-06T03:48:05.723Z,23.33
2019-04-06T03:50:35.201Z,20.73
2019-04-06T03:53:04.958Z,22.97
2019-04-06T03:55:34.592Z,22.63
2019-04-06T03:58:04.161Z,22.80
2019-04-06T04:00:33.855Z,24.30
2019-04-06T04:03:03.500Z,23.17
2019-04-06T04:05:33.373Z,25.57
2019-04-06T04:08:02.794Z,24.10
2019-04-06T04:10:34.741Z,26.40
2019-04-06T04:13:05.087Z,25.37
2019-04-06T04:15:34.655Z,27.07
2019-04-06T04:18:04.711Z,27.03
2019-04-06T04:20:34.690Z,25.20
2019-04-06T04:23:04.455Z,24.70
2019-04-06T04:25:34.532Z,29.27
2019-04-06T04:28:04.409Z,27.30
2019-04-06T04:30:34.925Z,27.77
2019-04-06T04:33:04.822Z,29.00
2019-04-06T04:35:34.564Z,27.80
2019-04-06T04:38:04.201Z,28.17
2019-04-06T04:40:33.699Z,27.73
2019-04-06T04:43:03.250Z,29.03
2019-04-06T04:45:32.747Z,29.17
2019-04-06T04:48:02.406Z,29.40
2019-04-06T04:50:31.914Z,28.70
2019-04-06T04:53:01.809Z,30.17
2019-04-06T04:55:31.321Z,29.57
2019-04-06T04:58:00.966Z,31.13
2019-04-06T05:00:30.526Z,29.50
2019-04-06T05:03:00.132Z,30.37
2019-04-06T05:05:29.625Z,29.27
2019-04-06T05:07:59.457Z,29.53
2019-04-06T05:10:29.206Z,28.37
2019-04-06T05:12:59.139Z,27.83
2019-04-06T05:15:48.096Z,26.93
2019-04-06T05:18:17.671Z,28.17
2019-04-06T05:20:47.359Z,27.63
2019-04-06T05:23:16.867Z,27.63
2019-04-06T05:25:49.138Z,29.63
2019-04-06T05:28:18.669Z,28.10
2019-04-06T05:30:48.489Z,27.50
2019-04-06T05:33:18.187Z,26.87
2019-04-06T05:35:47.689Z,25.77
2019-04-06T05:38:17.172Z,27.77
2019-04-06T05:40:46.688Z,27.03
2019-04-06T05:43:16.208Z,24.63
2019-04-06T05:45:45.939Z,25.67
2019-04-06T05:48:15.705Z,25.37
2019-04-06T05:50:45.526Z,25.33
2019-04-06T05:53:15.004Z,24.97
2019-04-06T05:55:44.683Z,25.27
2019-04-06T05:58:14.183Z,25.60
2019-04-06T06:00:43.756Z,25.03
2019-04-06T06:03:15.357Z,24.00
2019-04-06T06:05:44.603Z,25.43
2019-04-06T06:08:14.084Z,25.70
2019-04-06T06:10:43.643Z,25.10
2019-04-06T06:13:13.238Z,26.13
2019-04-06T06:15:42.792Z,23.77
2019-04-06T06:18:12.355Z,24.90
2019-04-06T06:20:41.880Z,24.40
2019-04-06T06:23:11.458Z,25.00
2019-04-06T06:25:41.264Z,25.67
2019-04-06T06:28:15.098Z,25.10
2019-04-06T06:30:42.078Z,24.60
2019-04-06T06:33:11.711Z,23.57
2019-04-06T06:35:41.270Z,24.10
2019-04-06T06:38:10.911Z,24.17
2019-04-06T06:40:40.451Z,25.47
2019-04-06T06:43:10.159Z,24.87
2019-04-06T06:45:39.784Z,26.27
2019-04-06T06:48:09.831Z,25.13
2019-04-06T06:50:39.491Z,24.30
2019-04-06T06:53:09.190Z,24.93
2019-04-06T06:55:38.940Z,26.00
2019-04-06T06:58:09.039Z,25.00
2019-04-06T07:00:38.583Z,25.77
2019-04-06T07:03:08.112Z,24.80
2019-04-06T07:05:37.604Z,24.23
2019-04-06T07:08:07.276Z,25.47
2019-04-06T07:10:36.922Z,23.00
2019-04-06T07:13:06.752Z,25.20
2019-04-06T07:15:36.480Z,25.13
2019-04-06T07:18:06.172Z,24.77
2019-04-06T07:20:36.045Z,25.50
2019-04-06T07:23:05.763Z,26.20
2019-04-06T07:25:35.515Z,24.73
2019-04-06T07:28:05.306Z,26.13
2019-04-06T07:30:34.789Z,25.73
2019-04-06T07:33:04.655Z,25.53
2019-04-06T07:35:34.347Z,26.07
2019-04-06T07:38:03.896Z,25.43
2019-04-06T07:40:33.401Z,25.17
2019-04-06T07:43:03.199Z,24.90
2019-04-06T07:45:32.743Z,25.90
2019-04-06T07:48:02.275Z,26.07
2019-04-06T07:50:34.961Z,24.67
2019-04-06T07:53:04.736Z,26.57
2019-04-06T07:55:34.553Z,26.00
2019-04-06T07:58:04.316Z,26.60
2019-04-06T08:00:33.847Z,28.23
2019-04-06T08:03:03.389Z,27.27
2019-04-06T08:05:33.032Z,25.87
2019-04-06T08:08:03.225Z,26.77
2019-04-06T08:10:32.706Z,25.33
2019-04-06T08:13:02.559Z,25.50
2019-04-06T08:15:32.290Z,25.30
2019-04-06T08:18:01.771Z,26.47
2019-04-06T08:20:31.538Z,25.87
2019-04-06T08:23:01.143Z,24.60
2019-04-06T08:25:30.867Z,23.97
2019-04-06T08:28:00.661Z,25.87
2019-04-06T08:30:30.203Z,24.20
2019-04-06T08:32:59.772Z,23.33
2019-04-06T08:35:29.316Z,23.50
2019-04-06T08:37:58.881Z,25.73
2019-04-06T08:40:28.695Z,22.73
2019-04-06T08:42:58.779Z,24.87
2019-04-06T08:45:28.511Z,24.27
2019-04-06T08:47:58.172Z,24.43
2019-04-06T08:50:27.944Z,24.47
2019-04-06T08:52:57.747Z,23.77
2019-04-06T08:55:27.647Z,23.87
2019-04-06T08:57:57.571Z,24.33
2019-04-06T09:00:27.355Z,26.00
2019-04-06T09:02:56.902Z,23.83
2019-04-06T09:05:26.494Z,23.87
2019-04-06T09:07:55.987Z,22.17
2019-04-06T09:10:25.670Z,24.17
2019-04-06T09:12:55.243Z,23.10
2019-04-06T09:15:25.132Z,21.27
2019-04-06T09:17:54.638Z,22.80
2019-04-06T09:20:24.230Z,22.30
2019-04-06T09:22:53.871Z,22.30
2019-04-06T09:25:23.725Z,21.00
2019-04-06T09:27:53.483Z,22.73
2019-04-06T09:30:23.147Z,22.43
2019-04-06T09:32:52.819Z,19.17
2019-04-06T09:35:22.607Z,21.20
2019-04-06T09:37:52.111Z,22.17
2019-04-06T09:40:21.793Z,22.50
2019-04-06T09:42:51.300Z,22.00
2019-04-06T09:45:46.163Z,22.03
2019-04-06T09:48:37.598Z,22.27
2019-04-06T09:51:27.274Z,21.13
2019-04-06T09:54:14.600Z,20.23
2019-04-06T09:57:06.318Z,22.07
2019-04-06T09:59:48.169Z,20.87
2019-04-06T10:02:46.215Z,20.40
2019-04-06T10:05:38.581Z,21.30
2019-04-06T10:08:25.639Z,22.17
2019-04-06T10:11:13.518Z,20.93
2019-04-06T10:13:53.247Z,20.67
2019-04-06T10:16:54.193Z,21.63
2019-04-06T10:19:34.591Z,18.77
2019-04-06T10:22:13.166Z,18.63
2019-04-06T10:25:00.251Z,21.30
2019-04-06T10:27:47.545Z,20.30
2019-04-06T10:30:39.315Z,21.43
2019-04-06T10:33:30.700Z,21.00
2019-04-06T10:36:25.366Z,20.93
2019-04-06T10:39:17.423Z,20.93
2019-04-06T10:42:24.004Z,21.03
2019-04-06T10:45:18.397Z,21.63
2019-04-06T10:47:54.480Z,21.90
2019-04-06T10:50:45.740Z,20.77
2019-04-06T10:53:37.264Z,21.57
2019-04-06T10:56:27.876Z,22.67
2019-04-06T10:59:09.620Z,22.27
2019-04-06T11:02:07.687Z,20.87
2019-04-06T11:04:51.721Z,20.02
2019-04-06T11:07:30.950Z,20.73
2019-04-06T11:10:38.016Z,21.97
2019-04-06T11:13:19.472Z,19.87
2019-04-06T11:16:14.631Z,20.35
2019-04-06T11:19:03.369Z,21.37
2019-04-06T11:22:07.527Z,21.00
2019-04-06T11:25:08.166Z,20.68
2019-04-06T11:27:56.796Z,20.83
2019-04-06T11:30:47.977Z,20.20
2019-04-06T11:33:26.948Z,21.73
2019-04-06T11:36:14.465Z,21.83
2019-04-06T11:39:02.493Z,21.00
2019-04-06T11:41:49.911Z,20.90
2019-04-06T11:44:38.780Z,20.17
2019-04-06T11:47:26.306Z,19.82
2019-04-06T11:50:16.917Z,20.72
2019-04-06T11:53:00.139Z,20.48
2019-04-06T11:55:45.408Z,19.67
2019-04-06T11:58:34.354Z,19.67
2019-04-06T12:01:25.307Z,19.82
2019-04-06T12:04:17.100Z,19.95
2019-04-06T12:07:11.249Z,20.75
2019-04-06T12:10:03.066Z,21.50
2019-04-06T12:12:59.417Z,19.67
2019-04-06T12:15:40.235Z,21.27
2019-04-06T12:18:21.057Z,21.35
2019-04-06T12:21:03.908Z,21.50
2019-04-06T12:23:52.676Z,19.95
2019-04-06T12:26:41.622Z,20.80
2019-04-06T12:29:31.519Z,20.12
2019-04-06T12:32:32.441Z,20.40
2019-04-06T12:35:10.268Z,20.37
2019-04-06T12:38:05.172Z,20.08
2019-04-06T12:41:02.122Z,20.23
2019-04-06T12:43:49.729Z,19.90
2019-04-06T12:46:39.534Z,20.20
2019-04-06T12:49:31.183Z,19.25
2019-04-06T12:52:19.682Z,19.15
2019-04-06T12:55:15.099Z,20.40
2019-04-06T12:58:10.015Z,19.30
2019-04-06T13:00:52.144Z,19.02
2019-04-06T13:03:41.479Z,19.98
2019-04-06T13:06:29.915Z,20.02
2019-04-06T13:09:17.055Z,20.75
2019-04-06T13:12:09.004Z,18.07
2019-04-06T13:15:00.531Z,19.30
2019-04-06T13:17:49.359Z,20.33
2019-04-06T13:20:47.476Z,17.77
2019-04-06T13:23:34.973Z,19.17
2019-04-06T13:26:20.841Z,17.67
2019-04-06T13:28:59.419Z,18.33
2019-04-06T13:31:47.167Z,18.33
2019-04-06T13:34:38.731Z,18.90
2019-04-06T13:37:37.088Z,18.93
2019-04-06T13:40:26.287Z,18.47
2019-04-06T13:43:13.345Z,17.87
2019-04-06T13:46:17.521Z,18.00
2019-04-06T13:49:04.598Z,17.97
2019-04-06T13:51:43.358Z,17.17
2019-04-06T13:54:38.100Z,17.90
2019-04-06T13:57:41.817Z,17.43
2019-04-06T14:00:33.421Z,16.23
2019-04-06T14:03:25.155Z,16.57
2019-04-06T14:06:17.617Z,17.83
2019-04-06T14:08:57.692Z,18.07
2019-04-06T14:11:40.798Z,16.97
2019-04-06T14:14:30.075Z,16.57
2019-04-06T14:17:17.533Z,16.63
2019-04-06T14:20:24.708Z,16.60
2019-04-06T14:23:11.844Z,17.80
2019-04-06T14:26:12.527Z,17.37
2019-04-06T14:28:54.566Z,17.47
2019-04-06T14:31:31.162Z,18.03
2019-04-06T14:34:18.605Z,17.03
2019-04-06T14:37:06.111Z,17.20
2019-04-06T14:40:07.267Z,16.60
2019-04-06T14:43:05.738Z,17.53
2019-04-06T14:45:43.476Z,15.87
2019-04-06T14:48:21.426Z,16.57
2019-04-06T14:51:22.759Z,16.00
2019-04-06T14:54:12.645Z,16.50
2019-04-06T14:57:01.530Z,16.97
2019-04-06T14:59:50.219Z,17.23
2019-04-06T15:02:32.824Z,16.57
2019-04-06T15:05:19.147Z,16.33
2019-04-06T15:08:20.185Z,15.67
2019-04-06T15:11:00.453Z,15.63
2019-04-06T15:13:43.442Z,16.23
2019-04-06T15:16:32.781Z,15.90
2019-04-06T15:19:17.726Z,14.77
2019-04-06T15:22:10.224Z,14.87
2019-04-06T15:24:56.872Z,15.03
2019-04-06T15:27:48.102Z,15.57
2019-04-06T15:30:36.436Z,15.63
2019-04-06T15:33:37.387Z,16.37
2019-04-06T15:36:29.121Z,14.73
2019-04-06T15:39:16.718Z,14.20
2019-04-06T15:42:11.131Z,14.33
2019-04-06T15:45:02.645Z,15.57
2019-04-06T15:47:57.072Z,15.10
2019-04-06T15:50:39.663Z,14.60
2019-04-06T15:53:27.425Z,14.80
2019-04-06T15:56:06.287Z,14.70
2019-04-06T15:58:39.936Z,15.17
2019-04-06T16:01:38.709Z,15.37
2019-04-06T16:04:25.888Z,16.07
2019-04-06T16:07:14.509Z,15.60
2019-04-06T16:10:01.639Z,15.40
2019-04-06T16:12:42.158Z,15.93
2019-04-06T16:15:40.299Z,14.90
2019-04-06T16:18:28.138Z,14.27
2019-04-06T16:21:15.751Z,14.53
2019-04-06T16:24:03.056Z,15.37
2019-04-06T16:26:55.176Z,15.93
2019-04-06T16:29:34.094Z,16.13
2019-04-06T16:32:33.488Z,14.40
2019-04-06T16:35:37.683Z,14.43
2019-04-06T16:38:18.087Z,14.90
2019-04-06T16:41:09.747Z,14.87
2019-04-06T16:43:57.505Z,15.33
2019-04-06T16:46:46.984Z,14.17
2019-04-06T16:49:26.078Z,16.00
2019-04-06T16:52:18.111Z,14.07
2019-04-06T16:55:10.035Z,14.50
2019-04-06T16:58:14.725Z,15.00
2019-04-06T17:00:52.660Z,15.43
2019-04-06T17:03:40.847Z,15.03
2019-04-06T17:06:28.106Z,15.67
2019-04-06T17:09:18.252Z,14.37
2019-04-06T17:12:12.571Z,15.03
2019-04-06T17:15:19.931Z,15.80
2019-04-06T17:18:11.868Z,15.80
2019-04-06T17:21:13.107Z,15.73
2019-04-06T17:24:06.154Z,15.57
2019-04-06T17:26:46.817Z,16.57
2019-04-06T17:29:34.571Z,16.93
2019-04-06T17:32:35.966Z,16.83
2019-04-06T17:35:06.061Z,15.00
2019-04-06T17:38:01.323Z,17.13
2019-04-06T17:40:50.692Z,15.43
2019-04-06T17:43:38.188Z,18.03
2019-04-06T17:46:19.680Z,17.67
2019-04-06T17:49:11.687Z,17.30
2019-04-06T17:51:50.651Z,17.13
2019-04-06T17:54:40.155Z,16.80
2019-04-06T17:57:30.677Z,17.63
2019-04-06T18:00:21.710Z,17.43
2019-04-06T18:03:22.707Z,18.40
2019-04-06T18:06:17.870Z,16.90
2019-04-06T18:09:09.934Z,18.90
2019-04-06T18:11:56.680Z,18.13
2019-04-06T18:14:26.876Z,16.70
2019-04-06T18:16:57.139Z,17.93
2019-04-06T18:19:27.247Z,18.30
2019-04-06T18:21:57.367Z,17.30
2019-04-06T18:24:27.487Z,18.17
2019-04-06T18:26:57.584Z,18.97
2019-04-06T18:29:27.384Z,17.20
2019-04-06T18:32:26.412Z,17.73
2019-04-06T18:34:56.430Z,17.87
2019-04-06T18:37:45.861Z,16.80
2019-04-06T18:40:22.710Z,18.13
2019-04-06T18:42:54.438Z,19.00
2019-04-06T18:45:25.726Z,18.07
2019-04-06T18:47:56.012Z,18.23
2019-04-06T18:50:34.778Z,17.00
2019-04-06T18:52:57.770Z,17.67
2019-04-06T18:55:27.893Z,17.30
2019-04-06T18:58:08.682Z,21.10
2019-04-06T19:00:29.864Z,20.97
2019-04-06T19:03:11.195Z,20.37
2019-04-06T19:05:31.406Z,20.43
2019-04-06T19:08:01.827Z,20.30
2019-04-06T19:10:32.554Z,18.93
2019-04-06T19:13:02.552Z,21.37
2019-04-06T19:15:32.407Z,23.50
2019-04-06T19:18:02.677Z,24.10
2019-04-06T19:20:32.865Z,22.97
2019-04-06T19:23:02.867Z,23.90
2019-04-06T19:25:32.840Z,23.27
2019-04-06T19:28:02.756Z,23.07
2019-04-06T19:30:32.739Z,23.27
2019-04-06T19:33:02.719Z,22.17
2019-04-06T19:35:33.044Z,23.17
2019-04-06T19:38:03.186Z,23.57
2019-04-06T19:40:33.555Z,23.50
2019-04-06T19:43:03.536Z,21.97
2019-04-06T19:45:33.759Z,22.53
2019-04-06T19:48:04.195Z,22.43
2019-04-06T19:50:35.548Z,23.47
2019-04-06T19:53:05.730Z,22.80
2019-04-06T19:55:36.698Z,22.20
2019-04-06T19:58:07.122Z,22.57
2019-04-06T20:00:37.229Z,23.47
2019-04-06T20:03:07.255Z,22.50
2019-04-06T20:05:37.209Z,20.33
2019-04-06T20:08:07.172Z,20.73
2019-04-06T20:10:37.424Z,20.83
2019-04-06T20:13:07.698Z,20.40
2019-04-06T20:15:37.535Z,21.47
2019-04-06T20:18:08.069Z,21.97
2019-04-06T20:20:38.832Z,20.13
2019-04-06T20:23:09.470Z,21.30
2019-04-06T20:25:39.730Z,22.03
2019-04-06T20:28:09.653Z,21.77
2019-04-06T20:30:39.745Z,21.10
2019-04-06T20:33:09.867Z,20.07
2019-04-06T20:35:39.700Z,19.90
2019-04-06T20:38:09.584Z,19.57
2019-04-06T20:40:39.286Z,20.17
2019-04-06T20:43:09.091Z,20.53
2019-04-06T20:45:38.999Z,20.23
2019-04-06T20:48:09.373Z,20.53
2019-04-06T20:50:39.702Z,21.67
2019-04-06T20:53:09.932Z,21.10
2019-04-06T20:55:39.821Z,20.63
2019-04-06T20:58:09.868Z,19.30
2019-04-06T21:00:39.806Z,19.23
2019-04-06T21:03:09.667Z,20.23
2019-04-06T21:05:39.544Z,22.97
2019-04-06T21:08:09.378Z,24.67
2019-04-06T21:10:38.849Z,20.87
2019-04-06T21:13:08.928Z,18.27
2019-04-06T21:15:38.652Z,19.83
2019-04-06T21:18:08.914Z,21.53
2019-04-06T21:20:39.338Z,20.03
2019-04-06T21:23:08.891Z,19.23
2019-04-06T21:25:38.701Z,20.20
2019-04-06T21:28:08.870Z,20.27
2019-04-06T21:30:39.060Z,19.23
2019-04-06T21:33:08.887Z,19.70
2019-04-06T21:35:38.578Z,18.43
2019-04-06T21:38:08.930Z,19.03
2019-04-06T21:40:38.600Z,20.07
2019-04-06T21:43:08.332Z,18.57
2019-04-06T21:45:38.687Z,17.67
2019-04-06T21:48:09.408Z,18.13
2019-04-06T21:50:39.641Z,19.47
2019-04-06T21:53:09.456Z,19.57
2019-04-06T21:55:39.105Z,18.93
2019-04-06T21:58:08.755Z,20.00
2019-04-06T22:00:50.053Z,18.87
2019-04-06T22:03:20.722Z,20.40
2019-04-06T22:05:50.632Z,18.03
2019-04-06T22:08:20.525Z,18.80
2019-04-06T22:10:50.141Z,19.50
2019-04-06T22:13:19.821Z,18.63
2019-04-06T22:15:49.343Z,19.63
2019-04-06T22:18:19.321Z,19.23
2019-04-06T22:20:49.091Z,20.33
2019-04-06T22:23:18.730Z,20.33
2019-04-06T22:25:48.280Z,19.70
2019-04-06T22:28:18.023Z,19.83
2019-04-06T22:30:47.753Z,19.80
2019-04-06T22:33:17.453Z,19.67
2019-04-06T22:35:47.482Z,20.30
2019-04-06T22:38:17.158Z,20.57
2019-04-06T22:40:47.512Z,20.53
2019-04-06T22:43:17.384Z,20.37
2019-04-06T22:45:47.105Z,21.17
2019-04-06T22:48:17.356Z,20.80
2019-04-06T22:50:47.459Z,20.90
2019-04-06T22:53:17.216Z,21.33
2019-04-06T22:55:46.756Z,21.00
2019-04-06T22:58:16.172Z,20.90
2019-04-06T23:00:55.576Z,21.40
2019-04-06T23:03:46.903Z,20.00
2019-04-06T23:06:21.420Z,20.57
2019-04-06T23:08:51.071Z,21.10
2019-04-06T23:11:20.714Z,21.53
2019-04-06T23:13:50.391Z,22.27
2019-04-06T23:16:19.921Z,20.70
2019-04-06T23:18:49.499Z,20.50
2019-04-06T23:21:19.210Z,21.13
2019-04-06T23:23:48.751Z,20.77
2019-04-06T23:26:18.573Z,21.40
2019-04-06T23:28:48.886Z,20.60
2019-04-06T23:31:18.543Z,21.57
2019-04-06T23:33:48.035Z,23.27
2019-04-06T23:36:18.192Z,22.73
2019-04-06T23:38:47.899Z,22.13
2019-04-06T23:41:17.423Z,23.10
2019-04-06T23:43:49.846Z,22.00
2019-04-06T23:46:19.404Z,22.90
2019-04-06T23:48:49.016Z,21.53
2019-04-06T23:51:18.824Z,21.50
2019-04-06T23:53:48.529Z,22.57
2019-04-06T23:56:18.793Z,21.70
2019-04-06T23:58:48.691Z,21.23
